CheckWX is a tool to help pilots better visualize weather data.  It is not intended as a substitute for an official pre-flight weather briefing.

21:06:14 UTC

KAFJ METAR
Washington County Airport
Washington, Pennsylvania, USA
Current

10 mins ago

KAFJ 232056Z AUTO 12006KT 7SM OVC005 06/04 A3005 RMK AO2 SLP186 60001 T00560044 56035
Observed
Feb-23 @ 20:56 UTC
Wind
  • 120° at 6 KTS
Visibility
7 SM
Flight Rules
IFR
Cloud Levels
  • Overcast at 500' AGL
Temperature
C / 43°F
Dewpoint
C / 39°F
Humidity
87%
Altimeter
30.05" Hg
Pressure
1018.6 hPa
Previous

54 mins ago

KAFJ 232012Z AUTO 11007KT 5SM BR OVC005 05/04 A3006 RMK AO2 PRESFR
Observed
Feb-23 @ 20:12 UTC
Wind
  • 110° at 7 KTS
Visibility
5 SM
Flight Rules
IFR
Conditions
Mist
Cloud Levels
  • Overcast at 500' AGL
Temperature
C / 41°F
Dewpoint
C / 39°F
Humidity
93%
Altimeter
30.06" Hg
Pressure
1017.92 hPa
Previous

2 hours ago

KAFJ 231903Z AUTO 13006KT 3SM -RA BR OVC009 04/03 A3011 RMK AO2 CIG 006V014 P0000
Observed
Feb-23 @ 19:03 UTC
Wind
  • 130° at 6 KTS
Visibility
3 SM
Flight Rules
IFR
Conditions
Light Rain, Mist
Cloud Levels
  • Overcast at 900' AGL
Temperature
C / 39°F
Dewpoint
C / 37°F
Humidity
93%
Altimeter
30.11" Hg
Pressure
1019.62 hPa
Current Rain
0.01"